Time;durP1;ratioP1;P1;durP2;ratioP2;P2;SDS_P1;SDS_P2;PMS_P1;PMS_P2;Temp;Humidity;BMP_temperature;BMP_pressure;BME280_temperature;BME280_humidity;BME280_pressure;Samples;Min_cycle;Max_cycle;Signal;HPM_P1;HPM_P2
2022/04/05 00:00:44;;;;;;;;;;;;;;;;;;2106797;28;20048;-44
2022/04/05 00:01:45;;;;;;;;;;;;;;;;;;2107153;28;19928;-43
2022/04/05 00:02:46;;;;;;;;;;;;;;;;;;2107092;28;19974;-44
2022/04/05 00:03:47;;;;;;;;;;;;;;;;;;2106739;28;19924;-44
2022/04/05 00:04:48;;;;;;;;;;;;;;;;;;2106790;28;19934;-44
2022/04/05 00:05:49;;;;;;;;;;;;;;;;;;2106725;28;19924;-44
2022/04/05 00:06:50;;;;;;;;;;;;;;;;;;2106793;28;19931;-44
2022/04/05 00:07:51;;;;;;;;;;;;;;;;;;2106451;28;19978;-49
2022/04/05 00:08:52;;;;;;;;;;;;;;;;;;2106842;28;19963;-48
2022/04/05 00:09:54;;;;;;;;;;;;;;;;;;2106964;28;20015;-49
2022/04/05 00:10:56;;;;;;;;;;;;;;;;;;2106778;28;20284;-48
2022/04/05 00:11:58;;;;;;;;;;;;;;;;;;2106792;28;19924;-48
2022/04/05 00:12:59;;;;;;;;;;;;;;;;;;2106894;28;19924;-44
2022/04/05 00:14:00;;;;;;;;;;;;;;;;;;2105864;28;19924;-44
2022/04/05 00:15:01;;;;;;;;;;;;;;;;;;2098334;28;19925;-44
2022/04/05 00:16:04;;;;;;;;;;;;;;;;;;2098595;28;20011;-49
2022/04/05 00:17:05;;;;;;;;;;;;;;;;;;2098275;28;19928;-49
2022/04/05 00:18:07;;;;;;;;;;;;;;;;;;2098415;28;20019;-49
2022/04/05 00:19:09;;;;;;;;;;;;;;;;;;2098295;28;20293;-49
2022/04/05 00:20:10;;;;;;;;;;;;;;;;;;2098328;28;19947;-49
2022/04/05 00:21:11;;;;;;;;;;;;;;;;;;2098298;28;19925;-48
2022/04/05 00:22:12;;;;;;;;;;;;;;;;;;2098570;28;20031;-49
2022/04/05 00:23:14;;;;;;;;;;;;;;;;;;2098335;28;19974;-49
2022/04/05 00:24:15;;;;;;;;;;;;;;;;;;2106563;28;20373;-51
2022/04/05 00:25:16;;;;;;;;;;;;;;;;;;2106947;28;19977;-49
2022/04/05 00:26:17;;;;;;;;;;;;;;;;;;2106600;28;19969;-48
2022/04/05 00:27:18;;;;;;;;;;;;;;;;;;2106940;28;19928;-48
2022/04/05 00:28:19;;;;;;;;;;;;;;;;;;2106485;28;19924;-49
2022/04/05 00:29:22;;;;;;;;;;;;;;;;;;2106966;28;20007;-54
2022/04/05 00:30:23;;;;;;;;;;;;;;;;;;2106605;28;19947;-44
2022/04/05 00:31:24;;;;;;;;;;;;;;;;;;2106639;28;19950;-44
2022/04/05 00:32:25;;;;;;;;;;;;;;;;;;2106454;28;19924;-44
2022/04/05 00:33:26;;;;;;;;;;;;;;;;;;2106763;28;20381;-44
2022/04/05 00:34:27;;;;;;;;;;;;;;;;;;2106744;28;19928;-44
2022/04/05 00:35:28;;;;;;;;;;;;;;;;;;2106464;28;20292;-44
2022/04/05 00:36:29;;;;;;;;;;;;;;;;;;2106303;28;19932;-44
2022/04/05 00:37:30;;;;;;;;;;;;;;;;;;2106491;28;19946;-44
2022/04/05 00:38:31;;;;;;;;;;;;;;;;;;2106666;28;19969;-44
2022/04/05 00:39:32;;;;;;;;;;;;;;;;;;2106617;28;19928;-44
2022/04/05 00:40:33;;;;;;;;;;;;;;;;;;2106745;28;19924;-48
2022/04/05 00:41:35;;;;;;;;;;;;;;;;;;2106279;28;19924;-44
2022/04/05 00:42:36;;;;;;;;;;;;;;;;;;2106644;28;20400;-43
2022/04/05 00:43:37;;;;;;;;;;;;;;;;;;2106652;28;19928;-44
2022/04/05 00:44:38;;;;;;;;;;;;;;;;;;2106467;28;20289;-44
2022/04/05 00:45:39;;;;;;;;;;;;;;;;;;2106501;28;19924;-44
2022/04/05 00:46:40;;;;;;;;;;;;;;;;;;2106766;28;20023;-44
2022/04/05 00:47:41;;;;;;;;;;;;;;;;;;2106679;28;20388;-49
2022/04/05 00:48:43;;;;;;;;;;;;;;;;;;2106394;28;20381;-49
2022/04/05 00:49:44;;;;;;;;;;;;;;;;;;2106508;28;19924;-48
2022/04/05 00:50:45;;;;;;;;;;;;;;;;;;2106390;28;19981;-48
2022/04/05 00:51:46;;;;;;;;;;;;;;;;;;2106507;28;19924;-49
2022/04/05 00:52:47;;;;;;;;;;;;;;;;;;2106312;28;19940;-48
2022/04/05 00:53:48;;;;;;;;;;;;;;;;;;2106231;28;19924;-48
2022/04/05 00:54:49;;;;;;;;;;;;;;;;;;2106484;28;19928;-49
2022/04/05 00:55:50;;;;;;;;;;;;;;;;;;2106385;28;20276;-48
2022/04/05 00:56:52;;;;;;;;;;;;;;;;;;2106610;28;20392;-44
2022/04/05 00:57:53;;;;;;;;;;;;;;;;;;2106454;28;19924;-44
2022/04/05 00:58:54;;;;;;;;;;;;;;;;;;2106384;28;19925;-44
2022/04/05 00:59:55;;;;;;;;;;;;;;;;;;2106408;28;20001;-44
2022/04/05 01:00:57;;;;;;;;;;;;;;;;;;2106251;28;19985;-50
2022/04/05 01:01:58;;;;;;;;;;;;;;;;;;2106262;28;19932;-48
2022/04/05 01:02:59;;;;;;;;;;;;;;;;;;2106608;28;20429;-44
2022/04/05 01:04:01;;;;;;;;;;;;;;;;;;2106382;28;19932;-43
2022/04/05 01:05:02;;;;;;;;;;;;;;;;;;2106278;28;20009;-44
2022/04/05 01:06:04;;;;;;;;;;;;;;;;;;2106576;28;19924;-44
2022/04/05 01:07:05;;;;;;;;;;;;;;;;;;2106486;28;19931;-44
2022/04/05 01:08:06;;;;;;;;;;;;;;;;;;2106267;28;20005;-44
2022/04/05 01:09:07;;;;;;;;;;;;;;;;;;2106391;28;19928;-44
2022/04/05 01:10:10;;;;;;;;;;;;;;;;;;2106380;28;19931;-44
2022/04/05 01:11:11;;;;;;;;;;;;;;;;;;2106274;28;19981;-43
2022/04/05 01:12:12;;;;;;;;;;;;;;;;;;2106358;28;20381;-44
2022/04/05 01:13:13;;;;;;;;;;;;;;;;;;2106347;28;20015;-44
2022/04/05 01:14:14;;;;;;;;;;;;;;;;;;2103386;28;19932;-44
2022/04/05 01:15:16;;;;;;;;;;;;;;;;;;2098009;28;20397;-44
2022/04/05 01:16:17;;;;;;;;;;;;;;;;;;2097877;28;19970;-44
2022/04/05 01:17:18;;;;;;;;;;;;;;;;;;2097971;28;20385;-44
2022/04/05 01:18:19;;;;;;;;;;;;;;;;;;2097891;28;19979;-44
2022/04/05 01:19:20;;;;;;;;;;;;;;;;;;2098027;28;19925;-44
2022/04/05 01:20:21;;;;;;;;;;;;;;;;;;2097941;28;19931;-44
2022/04/05 01:21:22;;;;;;;;;;;;;;;;;;2097930;28;19967;-43
2022/04/05 01:22:23;;;;;;;;;;;;;;;;;;2097792;28;19925;-44
2022/04/05 01:23:24;;;;;;;;;;;;;;;;;;2097963;28;19924;-44
2022/04/05 01:24:25;;;;;;;;;;;;;;;;;;2097997;28;19925;-44
2022/04/05 01:25:27;;;;;;;;;;;;;;;;;;2097930;28;20293;-44
2022/04/05 01:26:27;;;;;;;;;;;;;;;;;;2097964;28;20010;-44
2022/04/05 01:27:29;;;;;;;;;;;;;;;;;;2097922;28;20389;-44
2022/04/05 01:28:30;;;;;;;;;;;;;;;;;;2098029;28;19932;-44
2022/04/05 01:29:32;;;;;;;;;;;;;;;;;;2097823;28;20397;-44
2022/04/05 01:30:33;;;;;;;;;;;;;;;;;;2098104;28;19932;-44
2022/04/05 01:31:34;;;;;;;;;;;;;;;;;;2097797;28;19931;-44
2022/04/05 01:32:35;;;;;;;;;;;;;;;;;;2097879;28;19950;-44
2022/04/05 01:33:36;;;;;;;;;;;;;;;;;;2105180;28;19928;-44
2022/04/05 01:34:37;;;;;;;;;;;;;;;;;;2106206;28;20144;-44
2022/04/05 01:35:39;;;;;;;;;;;;;;;;;;2106318;28;20262;-44
2022/04/05 01:36:41;;;;;;;;;;;;;;;;;;2106346;28;20292;-49
2022/04/05 01:37:42;;;;;;;;;;;;;;;;;;2106069;28;19930;-48
2022/04/05 01:38:43;;;;;;;;;;;;;;;;;;2106419;28;19963;-48
2022/04/05 01:39:44;;;;;;;;;;;;;;;;;;2106330;28;19931;-49
2022/04/05 01:40:47;;;;;;;;;;;;;;;;;;2106066;28;20297;-49
2022/04/05 01:41:48;;;;;;;;;;;;;;;;;;2106134;28;19928;-49
2022/04/05 01:42:49;;;;;;;;;;;;;;;;;;2106127;28;19924;-47
2022/04/05 01:43:50;;;;;;;;;;;;;;;;;;2106100;28;20361;-49
2022/04/05 01:44:51;;;;;;;;;;;;;;;;;;2106196;28;19925;-49
2022/04/05 01:45:52;;;;;;;;;;;;;;;;;;2106481;28;19924;-48
2022/04/05 01:46:54;;;;;;;;;;;;;;;;;;2106152;28;19931;-50
2022/04/05 01:47:55;;;;;;;;;;;;;;;;;;2106349;28;19924;-44
2022/04/05 01:48:56;;;;;;;;;;;;;;;;;;2106311;28;19945;-48
2022/04/05 01:49:58;;;;;;;;;;;;;;;;;;2106237;28;19924;-49
2022/04/05 01:50:59;;;;;;;;;;;;;;;;;;2106184;28;20327;-49
2022/04/05 01:52:00;;;;;;;;;;;;;;;;;;2106022;28;19949;-48
2022/04/05 01:53:01;;;;;;;;;;;;;;;;;;2105942;28;20448;-49
2022/04/05 01:54:05;;;;;;;;;;;;;;;;;;2106164;28;19924;-49
2022/04/05 01:55:06;;;;;;;;;;;;;;;;;;2106225;28;19924;-49
2022/04/05 01:56:07;;;;;;;;;;;;;;;;;;2105925;28;20285;-48
2022/04/05 01:57:08;;;;;;;;;;;;;;;;;;2106102;28;20393;-48
2022/04/05 01:58:09;;;;;;;;;;;;;;;;;;2106090;28;19924;-47
2022/04/05 01:59:10;;;;;;;;;;;;;;;;;;2105972;28;20432;-48
2022/04/05 02:00:14;;;;;;;;;;;;;;;;;;2106034;28;19928;-48
2022/04/05 02:01:15;;;;;;;;;;;;;;;;;;2106060;28;20292;-49
2022/04/05 02:02:17;;;;;;;;;;;;;;;;;;2106077;28;19924;-48
2022/04/05 02:03:18;;;;;;;;;;;;;;;;;;2106088;28;19935;-49
2022/04/05 02:04:19;;;;;;;;;;;;;;;;;;2106200;28;20258;-49
2022/04/05 02:05:20;;;;;;;;;;;;;;;;;;2105897;28;20395;-49
2022/04/05 02:06:22;;;;;;;;;;;;;;;;;;2106712;28;19924;-49
2022/04/05 02:07:23;;;;;;;;;;;;;;;;;;2107517;28;20430;-48
2022/04/05 02:08:24;;;;;;;;;;;;;;;;;;2107450;28;19977;-49
2022/04/05 02:09:25;;;;;;;;;;;;;;;;;;2107868;28;19932;-48
2022/04/05 02:10:27;;;;;;;;;;;;;;;;;;2107572;28;19953;-49
2022/04/05 02:11:28;;;;;;;;;;;;;;;;;;2107342;28;19924;-48
2022/04/05 02:12:29;;;;;;;;;;;;;;;;;;2107405;28;20018;-50
2022/04/05 02:13:31;;;;;;;;;;;;;;;;;;2107598;28;19924;-49
2022/04/05 02:14:32;;;;;;;;;;;;;;;;;;2101946;28;20409;-47
2022/04/05 02:15:33;;;;;;;;;;;;;;;;;;2099271;28;19946;-49
2022/04/05 02:16:34;;;;;;;;;;;;;;;;;;2098970;28;20000;-49
2022/04/05 02:17:36;;;;;;;;;;;;;;;;;;2099113;28;20386;-48
2022/04/05 02:18:37;;;;;;;;;;;;;;;;;;2099346;28;19924;-49
2022/04/05 02:19:40;;;;;;;;;;;;;;;;;;2099588;28;20022;-49
2022/04/05 02:20:41;;;;;;;;;;;;;;;;;;2099052;28;19936;-49
2022/04/05 02:21:42;;;;;;;;;;;;;;;;;;2099274;28;19925;-48
2022/04/05 02:22:43;;;;;;;;;;;;;;;;;;2099152;28;19925;-52
2022/04/05 02:23:44;;;;;;;;;;;;;;;;;;2099316;28;20370;-44
2022/04/05 02:24:45;;;;;;;;;;;;;;;;;;2099102;28;20508;-44
2022/04/05 02:25:46;;;;;;;;;;;;;;;;;;2099212;28;19928;-44
2022/04/05 02:26:47;;;;;;;;;;;;;;;;;;2098912;28;19929;-44
2022/04/05 02:27:48;;;;;;;;;;;;;;;;;;2098997;28;20430;-44
2022/04/05 02:28:50;;;;;;;;;;;;;;;;;;2099193;28;20018;-44
2022/04/05 02:29:50;;;;;;;;;;;;;;;;;;2106113;28;20416;-44
2022/04/05 02:30:52;;;;;;;;;;;;;;;;;;2107379;28;19931;-44
2022/04/05 02:31:52;;;;;;;;;;;;;;;;;;2107472;28;19968;-49
2022/04/05 02:32:54;;;;;;;;;;;;;;;;;;2107230;28;20015;-48
2022/04/05 02:33:55;;;;;;;;;;;;;;;;;;2107455;28;19924;-49
2022/04/05 02:34:56;;;;;;;;;;;;;;;;;;2107353;28;19924;-49
2022/04/05 02:35:57;;;;;;;;;;;;;;;;;;2107330;28;20001;-48
2022/04/05 02:36:59;;;;;;;;;;;;;;;;;;2107287;28;20022;-48
2022/04/05 02:37:59;;;;;;;;;;;;;;;;;;2107391;28;20190;-49
2022/04/05 02:39:01;;;;;;;;;;;;;;;;;;2107272;28;19969;-49
2022/04/05 02:40:02;;;;;;;;;;;;;;;;;;2107355;28;20007;-49
2022/04/05 02:41:05;;;;;;;;;;;;;;;;;;2107309;28;20354;-49
2022/04/05 02:42:06;;;;;;;;;;;;;;;;;;2107217;28;19924;-50
2022/04/05 02:43:07;;;;;;;;;;;;;;;;;;2107375;28;19930;-51
2022/04/05 02:44:08;;;;;;;;;;;;;;;;;;2107682;28;19935;-49
2022/04/05 02:45:09;;;;;;;;;;;;;;;;;;2107296;28;19924;-49
2022/04/05 02:46:11;;;;;;;;;;;;;;;;;;2107240;28;20449;-49
2022/04/05 02:47:12;;;;;;;;;;;;;;;;;;2107299;28;19924;-48
2022/04/05 02:48:13;;;;;;;;;;;;;;;;;;2107346;28;19924;-50
2022/04/05 02:49:14;;;;;;;;;;;;;;;;;;2107319;28;19924;-51
2022/04/05 02:50:17;;;;;;;;;;;;;;;;;;2107411;28;19925;-52
2022/04/05 02:51:18;;;;;;;;;;;;;;;;;;2107237;28;20335;-49
2022/04/05 02:52:19;;;;;;;;;;;;;;;;;;2107397;28;20003;-52
2022/04/05 02:53:20;;;;;;;;;;;;;;;;;;2107320;28;19924;-49
2022/04/05 02:54:22;;;;;;;;;;;;;;;;;;2107258;28;19932;-49
2022/04/05 02:55:23;;;;;;;;;;;;;;;;;;2107295;28;19932;-49
2022/04/05 02:56:24;;;;;;;;;;;;;;;;;;2107330;28;20308;-49
2022/04/05 02:57:25;;;;;;;;;;;;;;;;;;2107109;28;20332;-49
2022/04/05 02:58:26;;;;;;;;;;;;;;;;;;2107472;28;19924;-49
2022/04/05 02:59:27;;;;;;;;;;;;;;;;;;2107434;28;19928;-50
2022/04/05 03:00:28;;;;;;;;;;;;;;;;;;2107076;28;19928;-49
2022/04/05 03:01:29;;;;;;;;;;;;;;;;;;2107356;28;20081;-48
2022/04/05 03:02:35;;;;;;;;;;;;;;;;;;2107378;28;19924;-48
2022/04/05 03:03:36;;;;;;;;;;;;;;;;;;2107217;28;19924;-48
2022/04/05 03:04:37;;;;;;;;;;;;;;;;;;2107242;28;20014;-49
2022/04/05 03:05:39;;;;;;;;;;;;;;;;;;2107120;28;19978;-51
2022/04/05 03:06:40;;;;;;;;;;;;;;;;;;2107103;28;19924;-50
2022/04/05 03:07:41;;;;;;;;;;;;;;;;;;2107370;28;20312;-49
2022/04/05 03:08:42;;;;;;;;;;;;;;;;;;2107269;28;19935;-49
2022/04/05 03:09:43;;;;;;;;;;;;;;;;;;2107298;28;20385;-49
2022/04/05 03:10:44;;;;;;;;;;;;;;;;;;2107143;28;19924;-49
2022/04/05 03:11:45;;;;;;;;;;;;;;;;;;2107604;28;19924;-49
2022/04/05 03:12:46;;;;;;;;;;;;;;;;;;2107233;28;19973;-44
2022/04/05 03:13:48;;;;;;;;;;;;;;;;;;2107367;28;19924;-44
2022/04/05 03:14:48;;;;;;;;;;;;;;;;;;2099327;28;20285;-44
2022/04/05 03:15:50;;;;;;;;;;;;;;;;;;2098720;28;19925;-44
2022/04/05 03:16:51;;;;;;;;;;;;;;;;;;2098559;28;19935;-44
2022/04/05 03:17:55;;;;;;;;;;;;;;;;;;2099084;28;19924;-49
2022/04/05 03:18:56;;;;;;;;;;;;;;;;;;2098748;28;20018;-49
2022/04/05 03:19:58;;;;;;;;;;;;;;;;;;2098754;28;19924;-48
2022/04/05 03:21:00;;;;;;;;;;;;;;;;;;2098892;28;20378;-49
2022/04/05 03:22:01;;;;;;;;;;;;;;;;;;2098604;28;19925;-48
2022/04/05 03:23:04;;;;;;;;;;;;;;;;;;2098841;28;19924;-49
2022/04/05 03:24:05;;;;;;;;;;;;;;;;;;2098727;28;19929;-49
2022/04/05 03:25:06;;;;;;;;;;;;;;;;;;2098646;28;20288;-48
2022/04/05 03:26:07;;;;;;;;;;;;;;;;;;2105981;28;19928;-49
2022/04/05 03:27:08;;;;;;;;;;;;;;;;;;2106709;28;20331;-48
2022/04/05 03:28:10;;;;;;;;;;;;;;;;;;2106987;28;19955;-49
2022/04/05 03:29:11;;;;;;;;;;;;;;;;;;2107497;28;19932;-44
2022/04/05 03:30:12;;;;;;;;;;;;;;;;;;2107074;28;20357;-43
2022/04/05 03:31:13;;;;;;;;;;;;;;;;;;2106865;28;20297;-44
2022/04/05 03:32:14;;;;;;;;;;;;;;;;;;2107131;28;20012;-44
2022/04/05 03:33:15;;;;;;;;;;;;;;;;;;2106928;28;19977;-44
2022/04/05 03:34:16;;;;;;;;;;;;;;;;;;2107295;28;19924;-49
2022/04/05 03:35:17;;;;;;;;;;;;;;;;;;2106826;28;19990;-48
2022/04/05 03:36:18;;;;;;;;;;;;;;;;;;2106901;28;19928;-49
2022/04/05 03:37:20;;;;;;;;;;;;;;;;;;2106989;28;20011;-49
2022/04/05 03:38:21;;;;;;;;;;;;;;;;;;2106969;28;20479;-48
2022/04/05 03:39:22;;;;;;;;;;;;;;;;;;2107108;28;19931;-51
2022/04/05 03:40:23;;;;;;;;;;;;;;;;;;2107002;28;20305;-49
2022/04/05 03:41:24;;;;;;;;;;;;;;;;;;2107050;28;19970;-49
2022/04/05 03:42:26;;;;;;;;;;;;;;;;;;2106865;28;20292;-49
2022/04/05 03:43:26;;;;;;;;;;;;;;;;;;2106843;28;20319;-48
2022/04/05 03:44:28;;;;;;;;;;;;;;;;;;2106926;28;19924;-49
2022/04/05 03:45:30;;;;;;;;;;;;;;;;;;2107132;28;19970;-44
2022/04/05 03:46:31;;;;;;;;;;;;;;;;;;2106776;28;20369;-44
2022/04/05 03:47:33;;;;;;;;;;;;;;;;;;2107125;28;20339;-49
2022/04/05 03:48:34;;;;;;;;;;;;;;;;;;2107147;28;19949;-48
2022/04/05 03:49:35;;;;;;;;;;;;;;;;;;2106931;28;20045;-47
2022/04/05 03:50:36;;;;;;;;;;;;;;;;;;2106839;28;20327;-48
2022/04/05 03:51:37;;;;;;;;;;;;;;;;;;2107081;28;19978;-49
2022/04/05 03:52:38;;;;;;;;;;;;;;;;;;2107341;28;19973;-44
2022/04/05 03:53:39;;;;;;;;;;;;;;;;;;2106844;28;20335;-44
2022/04/05 03:54:40;;;;;;;;;;;;;;;;;;2106901;28;19924;-44
2022/04/05 03:55:42;;;;;;;;;;;;;;;;;;2106785;28;19931;-44
2022/04/05 03:56:44;;;;;;;;;;;;;;;;;;2106780;28;19931;-44
2022/04/05 03:57:45;;;;;;;;;;;;;;;;;;2107145;28;19924;-44
2022/04/05 03:58:46;;;;;;;;;;;;;;;;;;2106777;28;20272;-44
2022/04/05 03:59:47;;;;;;;;;;;;;;;;;;2106755;28;19924;-44
2022/04/05 04:00:49;;;;;;;;;;;;;;;;;;2106839;28;19928;-44
2022/04/05 04:01:51;;;;;;;;;;;;;;;;;;2106582;28;20270;-44
2022/04/05 04:02:52;;;;;;;;;;;;;;;;;;2106870;28;20339;-44
2022/04/05 04:03:53;;;;;;;;;;;;;;;;;;2106818;28;19958;-44
2022/04/05 04:04:54;;;;;;;;;;;;;;;;;;2106712;28;19947;-44
2022/04/05 04:05:55;;;;;;;;;;;;;;;;;;2106968;28;20011;-44
2022/04/05 04:06:56;;;;;;;;;;;;;;;;;;2106901;28;19924;-44
2022/04/05 04:07:57;;;;;;;;;;;;;;;;;;2107046;28;20280;-49
2022/04/05 04:08:58;;;;;;;;;;;;;;;;;;2106535;28;20399;-53
2022/04/05 04:10:00;;;;;;;;;;;;;;;;;;2106846;28;19931;-48
2022/04/05 04:11:01;;;;;;;;;;;;;;;;;;2106892;28;19969;-49
2022/04/05 04:12:04;;;;;;;;;;;;;;;;;;2106636;28;19927;-49
2022/04/05 04:13:05;;;;;;;;;;;;;;;;;;2106641;28;20475;-48
2022/04/05 04:14:06;;;;;;;;;;;;;;;;;;2106792;28;19924;-44
2022/04/05 04:15:07;;;;;;;;;;;;;;;;;;2106723;28;20297;-44
2022/04/05 04:16:08;;;;;;;;;;;;;;;;;;2106660;28;20270;-44
2022/04/05 04:17:09;;;;;;;;;;;;;;;;;;2106773;28;20141;-44
2022/04/05 04:18:10;;;;;;;;;;;;;;;;;;2106651;28;20608;-42
2022/04/05 04:19:12;;;;;;;;;;;;;;;;;;2106815;28;19924;-44
2022/04/05 04:20:13;;;;;;;;;;;;;;;;;;2106903;28;20175;-49
2022/04/05 04:21:14;;;;;;;;;;;;;;;;;;2106669;28;19928;-48
2022/04/05 04:22:16;;;;;;;;;;;;;;;;;;2106370;28;20077;-52
2022/04/05 04:23:17;;;;;;;;;;;;;;;;;;2106683;28;19984;-48
2022/04/05 04:24:20;;;;;;;;;;;;;;;;;;2106898;28;19931;-50
2022/04/05 04:25:21;;;;;;;;;;;;;;;;;;2106773;28;19924;-50
2022/04/05 04:26:22;;;;;;;;;;;;;;;;;;2107040;28;19924;-44
2022/04/05 04:27:23;;;;;;;;;;;;;;;;;;2106660;28;20026;-44
2022/04/05 04:28:24;;;;;;;;;;;;;;;;;;2106597;28;19977;-44
2022/04/05 04:29:25;;;;;;;;;;;;;;;;;;2106269;28;19924;-48
2022/04/05 04:30:26;;;;;;;;;;;;;;;;;;2106766;28;19938;-49
2022/04/05 04:31:28;;;;;;;;;;;;;;;;;;2106068;28;20034;-49
2022/04/05 04:32:29;;;;;;;;;;;;;;;;;;2106812;28;20007;-48
2022/04/05 04:33:30;;;;;;;;;;;;;;;;;;2106476;28;20026;-49
2022/04/05 04:34:31;;;;;;;;;;;;;;;;;;2106629;28;19924;-49
2022/04/05 04:35:34;;;;;;;;;;;;;;;;;;2106696;28;20040;-44
2022/04/05 04:36:39;;;;;;;;;;;;;;;;;;2106646;28;19924;-44
2022/04/05 04:37:40;;;;;;;;;;;;;;;;;;2106770;28;19946;-49
2022/04/05 04:38:41;;;;;;;;;;;;;;;;;;2106604;28;19924;-49
2022/04/05 04:39:43;;;;;;;;;;;;;;;;;;2106672;28;20432;-49
2022/04/05 04:40:44;;;;;;;;;;;;;;;;;;2106550;28;19990;-49
2022/04/05 04:41:45;;;;;;;;;;;;;;;;;;2106657;28;19924;-49
2022/04/05 04:42:46;;;;;;;;;;;;;;;;;;2106464;28;20031;-50
2022/04/05 04:43:47;;;;;;;;;;;;;;;;;;2106631;28;19947;-49
2022/04/05 04:44:48;;;;;;;;;;;;;;;;;;2106474;28;19954;-50
2022/04/05 04:45:49;;;;;;;;;;;;;;;;;;2106775;28;19924;-48
2022/04/05 04:46:50;;;;;;;;;;;;;;;;;;2106372;28;19924;-44
2022/04/05 04:47:51;;;;;;;;;;;;;;;;;;2106708;28;19931;-52
2022/04/05 04:48:52;;;;;;;;;;;;;;;;;;2106773;28;19924;-45
2022/04/05 04:49:54;;;;;;;;;;;;;;;;;;2106655;28;19924;-48
2022/04/05 04:50:55;;;;;;;;;;;;;;;;;;2106817;28;19949;-44
2022/04/05 04:51:57;;;;;;;;;;;;;;;;;;2106467;28;20046;-44
2022/04/05 04:52:57;;;;;;;;;;;;;;;;;;2106606;28;19931;-44
2022/04/05 04:53:59;;;;;;;;;;;;;;;;;;2106573;28;20304;-44
2022/04/05 04:55:00;;;;;;;;;;;;;;;;;;2106479;28;19946;-44
2022/04/05 04:56:01;;;;;;;;;;;;;;;;;;2106833;28;20403;-49
2022/04/05 04:57:09;;;;;;;;;;;;;;;;;;2106486;28;19943;-49
2022/04/05 04:58:10;;;;;;;;;;;;;;;;;;2106802;28;19924;-52
2022/04/05 04:59:11;;;;;;;;;;;;;;;;;;2106381;28;20266;-50
2022/04/05 05:00:12;;;;;;;;;;;;;;;;;;2106499;28;20007;-50
2022/04/05 05:01:13;;;;;;;;;;;;;;;;;;2106568;28;20034;-44
2022/04/05 05:02:14;;;;;;;;;;;;;;;;;;2106902;28;20003;-45
2022/04/05 05:03:18;;;;;;;;;;;;;;;;;;2106382;28;19967;-44
2022/04/05 05:04:19;;;;;;;;;;;;;;;;;;2106600;28;19971;-44
2022/04/05 05:05:20;;;;;;;;;;;;;;;;;;2106587;28;19938;-44
2022/04/05 05:06:22;;;;;;;;;;;;;;;;;;2106348;28;20005;-44
2022/04/05 05:07:22;;;;;;;;;;;;;;;;;;2106431;28;19924;-44
2022/04/05 05:08:24;;;;;;;;;;;;;;;;;;2106448;28;19993;-44
2022/04/05 05:09:24;;;;;;;;;;;;;;;;;;2106379;28;20393;-44
2022/04/05 05:10:26;;;;;;;;;;;;;;;;;;2106388;28;19924;-44
2022/04/05 05:11:27;;;;;;;;;;;;;;;;;;2106229;28;20396;-44
2022/04/05 05:12:28;;;;;;;;;;;;;;;;;;2106316;28;19931;-44
2022/04/05 05:13:31;;;;;;;;;;;;;;;;;;2106543;28;19962;-44
2022/04/05 05:14:32;;;;;;;;;;;;;;;;;;2106218;28;19924;-43
2022/04/05 05:15:33;;;;;;;;;;;;;;;;;;2106457;28;19924;-44
2022/04/05 05:16:34;;;;;;;;;;;;;;;;;;2106268;28;19924;-44
2022/04/05 05:17:35;;;;;;;;;;;;;;;;;;2106484;28;19931;-49
2022/04/05 05:18:37;;;;;;;;;;;;;;;;;;2106118;28;19968;-49
2022/04/05 05:19:38;;;;;;;;;;;;;;;;;;2106341;28;20298;-49
2022/04/05 05:20:40;;;;;;;;;;;;;;;;;;2106485;28;19924;-50
2022/04/05 05:21:41;;;;;;;;;;;;;;;;;;2106409;28;19924;-49
2022/04/05 05:22:43;;;;;;;;;;;;;;;;;;2106431;28;19931;-49
2022/04/05 05:23:45;;;;;;;;;;;;;;;;;;2106748;28;20015;-49
2022/04/05 05:24:47;;;;;;;;;;;;;;;;;;2106310;28;20297;-49
2022/04/05 05:25:48;;;;;;;;;;;;;;;;;;2106188;28;19924;-52
2022/04/05 05:26:50;;;;;;;;;;;;;;;;;;2106088;28;19930;-48
2022/04/05 05:27:51;;;;;;;;;;;;;;;;;;2106363;28;20365;-52
2022/04/05 05:28:52;;;;;;;;;;;;;;;;;;2106589;28;19925;-44
2022/04/05 05:29:53;;;;;;;;;;;;;;;;;;2106250;28;19974;-48
2022/04/05 05:30:55;;;;;;;;;;;;;;;;;;2106290;28;19924;-44
2022/04/05 05:31:56;;;;;;;;;;;;;;;;;;2106338;28;20053;-49
2022/04/05 05:32:57;;;;;;;;;;;;;;;;;;2106232;28;20050;-47
2022/04/05 05:33:58;;;;;;;;;;;;;;;;;;2106398;28;19931;-44
2022/04/05 05:34:59;;;;;;;;;;;;;;;;;;2106170;28;19926;-43
2022/04/05 05:36:00;;;;;;;;;;;;;;;;;;2106075;28;19978;-42
2022/04/05 05:37:02;;;;;;;;;;;;;;;;;;2106074;28;19924;-44
2022/04/05 05:38:03;;;;;;;;;;;;;;;;;;2106433;28;19924;-48
2022/04/05 05:39:05;;;;;;;;;;;;;;;;;;2106107;28;20369;-49
2022/04/05 05:40:06;;;;;;;;;;;;;;;;;;2106353;28;19931;-44
2022/04/05 05:41:07;;;;;;;;;;;;;;;;;;2105230;28;19974;-44
2022/04/05 05:42:08;;;;;;;;;;;;;;;;;;2105770;28;20375;-48
2022/04/05 05:43:10;;;;;;;;;;;;;;;;;;2106167;28;19932;-48
2022/04/05 05:44:11;;;;;;;;;;;;;;;;;;2106528;28;19924;-44
2022/04/05 05:45:12;;;;;;;;;;;;;;;;;;2106429;28;19969;-43
2022/04/05 05:46:13;;;;;;;;;;;;;;;;;;2106083;28;19981;-44
2022/04/05 05:47:14;;;;;;;;;;;;;;;;;;2106380;28;19928;-44
2022/04/05 05:48:15;;;;;;;;;;;;;;;;;;2106241;28;19924;-44
2022/04/05 05:49:16;;;;;;;;;;;;;;;;;;2106272;28;20001;-44
2022/04/05 05:50:17;;;;;;;;;;;;;;;;;;2106451;28;20305;-43
2022/04/05 05:51:19;;;;;;;;;;;;;;;;;;2106277;28;19932;-44
2022/04/05 05:52:20;;;;;;;;;;;;;;;;;;2106165;28;19931;-44
2022/04/05 05:53:22;;;;;;;;;;;;;;;;;;2106465;28;19924;-49
2022/04/05 05:54:23;;;;;;;;;;;;;;;;;;2106147;28;19967;-50
2022/04/05 05:55:24;;;;;;;;;;;;;;;;;;2106168;28;19928;-49
2022/04/05 05:56:27;;;;;;;;;;;;;;;;;;2106211;28;19928;-50
2022/04/05 05:57:28;;;;;;;;;;;;;;;;;;2106084;28;20086;-48
2022/04/05 05:58:29;;;;;;;;;;;;;;;;;;2106355;28;19928;-48
2022/04/05 05:59:30;;;;;;;;;;;;;;;;;;2106080;28;20385;-48
2022/04/05 06:00:31;;;;;;;;;;;;;;;;;;2106154;28;19924;-49
2022/04/05 06:01:32;;;;;;;;;;;;;;;;;;2106098;28;19924;-50
2022/04/05 06:02:34;;;;;;;;;;;;;;;;;;2106112;28;20385;-50
2022/04/05 06:03:35;;;;;;;;;;;;;;;;;;2106350;28;19924;-49
2022/04/05 06:04:36;;;;;;;;;;;;;;;;;;2106200;28;19924;-48
2022/04/05 06:05:38;;;;;;;;;;;;;;;;;;2105999;28;19931;-49
2022/04/05 06:06:39;;;;;;;;;;;;;;;;;;2105987;28;19928;-49
2022/04/05 06:07:41;;;;;;;;;;;;;;;;;;2106414;28;19924;-47
2022/04/05 06:08:42;;;;;;;;;;;;;;;;;;2106009;28;20405;-49
2022/04/05 06:09:43;;;;;;;;;;;;;;;;;;2106572;28;19931;-49
2022/04/05 06:10:45;;;;;;;;;;;;;;;;;;2106048;28;20381;-49
2022/04/05 06:11:46;;;;;;;;;;;;;;;;;;2106308;28;19931;-49
2022/04/05 06:12:48;;;;;;;;;;;;;;;;;;2105890;28;19978;-48
2022/04/05 06:13:49;;;;;;;;;;;;;;;;;;2105960;28;20391;-48
2022/04/05 06:14:50;;;;;;;;;;;;;;;;;;2105820;28;20030;-44
2022/04/05 06:15:51;;;;;;;;;;;;;;;;;;2106040;28;19931;-44
2022/04/05 06:16:52;;;;;;;;;;;;;;;;;;2106132;28;20400;-48
2022/04/05 06:17:54;;;;;;;;;;;;;;;;;;2106231;28;20292;-47
2022/04/05 06:18:55;;;;;;;;;;;;;;;;;;2106300;28;20430;-46
2022/04/05 06:19:56;;;;;;;;;;;;;;;;;;2106442;28;19925;-43
2022/04/05 06:20:58;;;;;;;;;;;;;;;;;;2105969;28;19931;-42
2022/04/05 06:21:58;;;;;;;;;;;;;;;;;;2105880;28;19928;-44
2022/04/05 06:23:00;;;;;;;;;;;;;;;;;;2105995;28;20022;-44
2022/04/05 06:24:01;;;;;;;;;;;;;;;;;;2105957;28;19931;-42
2022/04/05 06:25:02;;;;;;;;;;;;;;;;;;2106064;28;20339;-43
2022/04/05 06:26:03;;;;;;;;;;;;;;;;;;2106388;28;19924;-44
2022/04/05 06:27:04;;;;;;;;;;;;;;;;;;2105608;28;19924;-43
2022/04/05 06:28:05;;;;;;;;;;;;;;;;;;2105807;28;19924;-48
2022/04/05 06:29:06;;;;;;;;;;;;;;;;;;2106068;28;19924;-49
2022/04/05 06:30:08;;;;;;;;;;;;;;;;;;2106147;28;19928;-49
2022/04/05 06:31:09;;;;;;;;;;;;;;;;;;2105764;28;19928;-49
2022/04/05 06:32:10;;;;;;;;;;;;;;;;;;2106235;28;19925;-45
2022/04/05 06:33:11;;;;;;;;;;;;;;;;;;2105742;28;19924;-44
2022/04/05 06:34:12;;;;;;;;;;;;;;;;;;2105891;28;19924;-44
2022/04/05 06:35:13;;;;;;;;;;;;;;;;;;2106204;28;20020;-44
2022/04/05 06:36:14;;;;;;;;;;;;;;;;;;2105905;28;19924;-44
2022/04/05 06:37:16;;;;;;;;;;;;;;;;;;2105807;28;19931;-43
2022/04/05 06:38:17;;;;;;;;;;;;;;;;;;2105924;28;19950;-44
2022/04/05 06:39:18;;;;;;;;;;;;;;;;;;2105883;28;19968;-44
2022/04/05 06:40:19;;;;;;;;;;;;;;;;;;2106054;28;20007;-44
2022/04/05 06:41:20;;;;;;;;;;;;;;;;;;2105994;28;20368;-44
2022/04/05 06:42:21;;;;;;;;;;;;;;;;;;2105848;28;19924;-44
2022/04/05 06:43:24;;;;;;;;;;;;;;;;;;2105920;28;20038;-44
2022/04/05 06:44:25;;;;;;;;;;;;;;;;;;2105930;28;19931;-44
2022/04/05 06:45:26;;;;;;;;;;;;;;;;;;2106154;28;19931;-49
2022/04/05 06:46:27;;;;;;;;;;;;;;;;;;2105599;28;19928;-49
2022/04/05 06:47:29;;;;;;;;;;;;;;;;;;2106305;28;19935;-44
2022/04/05 06:48:30;;;;;;;;;;;;;;;;;;2105755;28;20292;-43
2022/04/05 06:49:31;;;;;;;;;;;;;;;;;;2105759;28;19924;-43
2022/04/05 06:50:33;;;;;;;;;;;;;;;;;;2106019;28;19924;-44
2022/04/05 06:51:34;;;;;;;;;;;;;;;;;;2105997;28;20305;-44
2022/04/05 06:52:35;;;;;;;;;;;;;;;;;;2106849;28;19924;-44
2022/04/05 06:53:36;;;;;;;;;;;;;;;;;;2107167;28;20373;-44
2022/04/05 06:54:37;;;;;;;;;;;;;;;;;;2107447;28;19924;-44
2022/04/05 06:55:38;;;;;;;;;;;;;;;;;;2107302;28;19924;-45
2022/04/05 06:56:39;;;;;;;;;;;;;;;;;;2107428;28;19931;-50
2022/04/05 06:57:41;;;;;;;;;;;;;;;;;;2107254;28;20022;-50
2022/04/05 06:58:42;;;;;;;;;;;;;;;;;;2107289;28;20007;-51